createdAt,value
2023-05-17T00:01:47.206Z,9.25
2023-05-17T00:04:13.806Z,10.80
2023-05-17T00:06:41.011Z,10.85
2023-05-17T00:09:07.717Z,10.45
2023-05-17T00:11:34.515Z,6.57
2023-05-17T00:14:01.051Z,11.93
2023-05-17T00:16:28.185Z,11.32
2023-05-17T00:18:54.785Z,12.18
2023-05-17T00:21:21.641Z,15.90
2023-05-17T00:23:48.109Z,10.75
2023-05-17T00:26:14.617Z,11.20
2023-05-17T00:28:41.138Z,13.70
2023-05-17T00:31:07.582Z,14.80
2023-05-17T00:33:34.017Z,15.88
2023-05-17T00:36:00.582Z,9.65
2023-05-17T00:38:27.020Z,16.77
2023-05-17T00:40:54.107Z,13.63
2023-05-17T00:43:20.690Z,10.88
2023-05-17T00:45:49.212Z,15.77
2023-05-17T00:48:16.208Z,20.20
2023-05-17T00:50:43.032Z,10.93
2023-05-17T00:53:10.033Z,12.88
2023-05-17T00:55:36.608Z,15.95
2023-05-17T00:58:03.367Z,11.48
2023-05-17T01:00:29.933Z,14.60
2023-05-17T01:02:56.556Z,12.25
2023-05-17T01:05:23.076Z,15.57
2023-05-17T01:07:49.524Z,18.80
2023-05-17T01:10:16.128Z,18.65
2023-05-17T01:12:45.614Z,16.23
2023-05-17T01:15:22.848Z,17.70
2023-05-17T01:18:14.909Z,17.88
2023-05-17T01:20:43.964Z,15.82
2023-05-17T01:23:29.309Z,16.20
2023-05-17T01:26:17.571Z,17.65
2023-05-17T01:28:46.337Z,13.60
2023-05-17T01:31:13.287Z,14.43
2023-05-17T01:33:40.110Z,19.13
2023-05-17T01:36:07.237Z,17.50
2023-05-17T01:38:33.685Z,19.67
2023-05-17T01:41:38.926Z,17.95
2023-05-17T01:44:27.071Z,17.42
2023-05-17T01:47:01.658Z,12.75
2023-05-17T01:49:33.584Z,14.43
2023-05-17T01:52:21.295Z,17.40
2023-05-17T01:54:54.282Z,18.00
2023-05-17T01:57:28.303Z,16.90
2023-05-17T01:59:57.933Z,19.65
2023-05-17T02:02:24.473Z,14.32
2023-05-17T02:04:51.673Z,20.27
2023-05-17T02:07:18.213Z,18.13
2023-05-17T02:09:44.625Z,18.60
2023-05-17T02:12:11.107Z,17.92
2023-05-17T02:14:37.540Z,15.48
2023-05-17T02:17:05.882Z,15.20
2023-05-17T02:19:32.614Z,19.23
2023-05-17T02:21:59.170Z,19.52
2023-05-17T02:24:25.639Z,15.07
2023-05-17T02:26:52.094Z,18.95
2023-05-17T02:29:18.601Z,16.10
2023-05-17T02:31:46.041Z,16.02
2023-05-17T02:34:12.498Z,17.45
2023-05-17T02:36:40.945Z,22.65
2023-05-17T02:39:07.408Z,15.00
2023-05-17T02:41:33.870Z,18.67
2023-05-17T02:44:00.452Z,14.48
2023-05-17T02:46:26.927Z,21.48
2023-05-17T02:48:53.362Z,15.55
2023-05-17T02:51:19.930Z,18.90
2023-05-17T02:53:46.334Z,14.88
2023-05-17T02:56:12.848Z,14.45
2023-05-17T02:58:39.388Z,15.05
2023-05-17T03:01:05.927Z,19.27
2023-05-17T03:03:32.563Z,21.35
2023-05-17T03:06:02.712Z,19.88
2023-05-17T03:08:29.162Z,13.80
2023-05-17T03:10:55.732Z,23.67
2023-05-17T03:13:22.186Z,23.45
2023-05-17T03:15:48.685Z,19.92
2023-05-17T03:18:15.402Z,21.52
2023-05-17T03:20:41.866Z,19.52
2023-05-17T03:23:08.363Z,16.75
2023-05-17T03:25:34.869Z,19.33
2023-05-17T03:28:01.488Z,18.15
2023-05-17T03:30:28.052Z,19.38
2023-05-17T03:32:55.173Z,23.75
2023-05-17T03:35:21.685Z,17.08
2023-05-17T03:37:48.132Z,18.35
2023-05-17T03:40:14.597Z,14.77
2023-05-17T03:42:41.367Z,17.20
2023-05-17T03:45:08.177Z,17.35
2023-05-17T03:47:34.867Z,17.50
2023-05-17T03:50:01.362Z,23.02
2023-05-17T03:52:27.814Z,29.58
2023-05-17T03:54:54.373Z,16.73
2023-05-17T03:57:21.525Z,19.73
2023-05-17T03:59:47.954Z,19.73
2023-05-17T04:02:16.810Z,23.00
2023-05-17T04:04:49.978Z,15.98
2023-05-17T04:07:17.342Z,27.92
2023-05-17T04:09:43.874Z,17.02
2023-05-17T04:12:10.821Z,15.48
2023-05-17T04:14:38.582Z,20.25
2023-05-17T04:17:05.246Z,19.10
2023-05-17T04:19:31.862Z,15.98
2023-05-17T04:21:58.416Z,20.13
2023-05-17T04:24:24.957Z,14.35
2023-05-17T04:26:51.445Z,16.17
2023-05-17T04:29:17.898Z,18.33
2023-05-17T04:31:44.351Z,22.73
2023-05-17T04:34:10.851Z,19.75
2023-05-17T04:36:37.359Z,19.13
2023-05-17T04:39:04.763Z,16.52
2023-05-17T04:41:31.959Z,17.77
2023-05-17T04:43:58.570Z,18.65
2023-05-17T04:46:25.096Z,19.65
2023-05-17T04:48:51.620Z,18.27
2023-05-17T04:51:18.176Z,15.70
2023-05-17T04:53:44.622Z,17.00
2023-05-17T04:56:11.091Z,22.73
2023-05-17T04:58:37.556Z,16.65
2023-05-17T05:01:05.898Z,21.27
2023-05-17T05:03:32.377Z,21.27
2023-05-17T05:05:58.975Z,20.73
2023-05-17T05:08:25.547Z,14.70
2023-05-17T05:10:51.988Z,20.98
2023-05-17T05:13:18.458Z,16.67
2023-05-17T05:15:45.001Z,18.42
2023-05-17T05:18:11.494Z,19.92
2023-05-17T05:20:38.071Z,17.88
2023-05-17T05:23:05.914Z,19.33
2023-05-17T05:25:32.929Z,18.25
2023-05-17T05:27:59.432Z,14.07
2023-05-17T05:30:25.934Z,13.15
2023-05-17T05:32:52.685Z,13.95
2023-05-17T05:35:19.504Z,14.50
2023-05-17T05:37:46.048Z,13.55
2023-05-17T05:40:13.041Z,20.90
2023-05-17T05:42:39.560Z,17.05
2023-05-17T05:45:06.986Z,19.08
2023-05-17T05:47:33.571Z,15.43
2023-05-17T05:50:00.071Z,18.23
2023-05-17T05:52:26.484Z,18.90
2023-05-17T05:54:52.956Z,16.63
2023-05-17T05:57:19.433Z,11.45
2023-05-17T05:59:45.978Z,14.20
2023-05-17T06:02:12.836Z,16.85
2023-05-17T06:04:45.192Z,17.35
2023-05-17T06:07:13.414Z,16.63
2023-05-17T06:09:40.265Z,21.83
2023-05-17T06:12:06.831Z,11.73
2023-05-17T06:14:33.385Z,12.73
2023-05-17T06:16:59.918Z,16.67
2023-05-17T06:19:26.908Z,17.83
2023-05-17T06:21:53.456Z,15.88
2023-05-17T06:24:19.964Z,16.65
2023-05-17T06:26:47.206Z,16.70
2023-05-17T06:29:13.651Z,14.02
2023-05-17T06:31:40.324Z,12.77
2023-05-17T06:34:06.958Z,12.63
2023-05-17T06:36:35.942Z,13.73
2023-05-17T06:39:04.123Z,14.70
2023-05-17T06:41:30.624Z,20.38
2023-05-17T06:43:57.189Z,19.58
2023-05-17T06:46:23.670Z,15.20
2023-05-17T06:48:51.324Z,17.38
2023-05-17T06:51:18.160Z,17.20
2023-05-17T06:53:44.698Z,11.23
2023-05-17T06:56:11.279Z,16.38
2023-05-17T06:58:37.823Z,11.38
2023-05-17T07:01:04.390Z,23.38
2023-05-17T07:03:30.969Z,11.20
2023-05-17T07:05:57.519Z,21.30
2023-05-17T07:08:24.010Z,18.25
2023-05-17T07:10:53.663Z,14.07
2023-05-17T07:13:20.651Z,12.98
2023-05-17T07:15:47.227Z,13.93
2023-05-17T07:18:13.846Z,15.13
2023-05-17T07:20:40.446Z,14.38
2023-05-17T07:23:07.683Z,10.93
2023-05-17T07:25:34.365Z,15.50
2023-05-17T07:28:00.980Z,20.00
2023-05-17T07:30:27.551Z,16.13
2023-05-17T07:32:54.026Z,17.73
2023-05-17T07:35:21.814Z,12.82
2023-05-17T07:37:48.811Z,12.40
2023-05-17T07:40:15.477Z,13.98
2023-05-17T07:42:42.172Z,15.18
2023-05-17T07:45:09.222Z,17.00
2023-05-17T07:47:35.795Z,14.32
2023-05-17T07:50:03.955Z,11.95
2023-05-17T07:52:30.444Z,18.52
2023-05-17T07:54:56.864Z,23.25
2023-05-17T07:57:23.484Z,17.73
2023-05-17T07:59:50.114Z,20.92
2023-05-17T08:02:16.594Z,17.67
2023-05-17T08:04:43.179Z,18.05
2023-05-17T08:07:09.706Z,11.30
2023-05-17T08:09:36.266Z,20.67
2023-05-17T08:12:02.917Z,14.50
2023-05-17T08:14:29.477Z,12.60
2023-05-17T08:16:56.040Z,26.05
2023-05-17T08:19:22.725Z,15.25
2023-05-17T08:21:49.596Z,14.25
2023-05-17T08:24:17.562Z,15.05
2023-05-17T08:26:44.034Z,14.20
2023-05-17T08:29:10.578Z,16.92
2023-05-17T08:31:37.007Z,10.85
2023-05-17T08:34:03.561Z,16.88
2023-05-17T08:36:30.127Z,15.45
2023-05-17T08:38:56.599Z,12.45
2023-05-17T08:41:23.157Z,15.00
2023-05-17T08:43:50.972Z,14.75
2023-05-17T08:46:21.748Z,8.57
2023-05-17T08:48:50.385Z,7.63
2023-05-17T08:51:18.288Z,14.38
2023-05-17T08:53:47.224Z,9.32
2023-05-17T08:56:16.466Z,8.25
2023-05-17T08:58:55.581Z,12.88
2023-05-17T09:01:25.796Z,9.80
2023-05-17T09:03:53.662Z,12.15
2023-05-17T09:06:21.699Z,17.30
2023-05-17T09:08:52.650Z,18.10
2023-05-17T09:11:30.176Z,9.32
2023-05-17T09:14:01.511Z,18.10
2023-05-17T09:16:29.277Z,14.82
2023-05-17T09:18:56.930Z,9.43
2023-05-17T09:21:24.820Z,12.30
2023-05-17T09:24:02.296Z,14.85
2023-05-17T09:27:02.915Z,11.45
2023-05-17T09:29:32.563Z,8.55
2023-05-17T09:32:25.466Z,17.42
2023-05-17T09:34:52.471Z,11.60
2023-05-17T09:37:20.760Z,11.45
2023-05-17T09:39:48.196Z,13.35
2023-05-17T09:42:16.555Z,10.05
2023-05-17T09:44:54.535Z,9.48
2023-05-17T09:47:28.706Z,11.80
2023-05-17T09:50:00.692Z,11.93
2023-05-17T09:52:31.796Z,15.25
2023-05-17T09:55:00.332Z,9.73
2023-05-17T09:57:28.830Z,11.25
2023-05-17T09:59:57.322Z,12.02
2023-05-17T10:02:31.025Z,12.07
2023-05-17T10:04:58.504Z,13.00
2023-05-17T10:07:26.631Z,8.30
2023-05-17T10:09:55.636Z,8.70
2023-05-17T10:12:25.017Z,8.73
2023-05-17T10:14:55.921Z,10.68
2023-05-17T10:17:26.570Z,10.95
2023-05-17T10:19:54.588Z,15.10
2023-05-17T10:22:23.681Z,12.68
2023-05-17T10:24:51.683Z,14.90
2023-05-17T10:27:18.930Z,14.43
2023-05-17T10:29:49.270Z,10.82
2023-05-17T10:32:19.304Z,6.93
2023-05-17T10:34:51.824Z,13.52
2023-05-17T10:37:25.010Z,12.88
2023-05-17T10:39:52.565Z,13.60
2023-05-17T10:42:20.054Z,15.85
2023-05-17T10:44:47.993Z,13.10
2023-05-17T10:47:15.378Z,11.25
2023-05-17T10:49:47.684Z,13.05
2023-05-17T10:52:17.459Z,11.80
2023-05-17T10:54:45.585Z,15.65
2023-05-17T10:57:39.064Z,11.27
2023-05-17T11:00:19.344Z,13.88
2023-05-17T11:02:48.525Z,9.73
2023-05-17T11:05:25.557Z,13.10
2023-05-17T11:07:52.217Z,10.18
2023-05-17T11:10:18.698Z,10.38
2023-05-17T11:12:49.312Z,12.50
2023-05-17T11:15:17.178Z,15.25
2023-05-17T11:17:43.995Z,8.55
2023-05-17T11:20:31.934Z,6.65
2023-05-17T11:23:05.146Z,10.80
2023-05-17T11:25:36.161Z,11.68
2023-05-17T11:28:17.671Z,10.82
2023-05-17T11:30:51.171Z,15.95
2023-05-17T11:33:32.405Z,10.85
2023-05-17T11:36:06.816Z,8.93
2023-05-17T11:38:34.251Z,8.35
2023-05-17T11:41:26.496Z,10.35
2023-05-17T11:43:53.317Z,10.13
2023-05-17T11:46:21.800Z,9.73
2023-05-17T11:48:50.946Z,11.68
2023-05-17T11:51:18.102Z,10.82
2023-05-17T11:53:44.856Z,12.60
2023-05-17T11:56:11.726Z,14.30
2023-05-17T11:58:38.407Z,12.52
2023-05-17T12:01:05.919Z,11.23
2023-05-17T12:03:33.666Z,11.23
2023-05-17T12:06:13.216Z,11.50
2023-05-17T12:08:43.587Z,8.80
2023-05-17T12:11:13.333Z,12.05
2023-05-17T12:13:42.703Z,12.73
2023-05-17T12:16:16.813Z,8.27
2023-05-17T12:18:48.781Z,8.98
2023-05-17T12:21:16.705Z,12.75
2023-05-17T12:23:46.305Z,10.73
2023-05-17T12:26:16.128Z,12.70
2023-05-17T12:28:43.695Z,14.13
2023-05-17T12:31:13.465Z,9.95
2023-05-17T12:33:42.668Z,9.02
2023-05-17T12:36:11.437Z,6.00
2023-05-17T12:38:40.597Z,10.32
2023-05-17T12:41:09.240Z,10.90
2023-05-17T12:43:38.139Z,10.68
2023-05-17T12:46:18.833Z,12.18
2023-05-17T12:48:46.325Z,11.85
2023-05-17T12:51:23.611Z,11.07
2023-05-17T12:53:59.546Z,10.57
2023-05-17T12:56:29.756Z,8.60
2023-05-17T12:59:06.613Z,10.82
2023-05-17T13:01:42.050Z,9.85
2023-05-17T13:04:08.562Z,9.73
2023-05-17T13:06:52.764Z,9.27
2023-05-17T13:09:21.846Z,8.25
2023-05-17T13:11:51.355Z,12.30
2023-05-17T13:14:43.456Z,11.23
2023-05-17T13:17:22.556Z,12.60
2023-05-17T13:19:49.208Z,7.63
2023-05-17T13:22:15.954Z,7.53
2023-05-17T13:24:43.988Z,10.07
2023-05-17T13:27:11.834Z,6.65
2023-05-17T13:29:41.603Z,7.55
2023-05-17T13:32:09.999Z,11.40
2023-05-17T13:34:36.973Z,19.20
2023-05-17T13:37:04.461Z,9.18
2023-05-17T13:39:30.932Z,11.35
2023-05-17T13:41:58.958Z,10.68
2023-05-17T13:44:25.543Z,9.98
2023-05-17T13:46:52.054Z,15.02
2023-05-17T13:49:18.797Z,12.63
2023-05-17T13:51:45.920Z,10.77
2023-05-17T13:54:12.597Z,10.15
2023-05-17T13:56:39.152Z,8.40
2023-05-17T13:59:05.644Z,9.20
2023-05-17T14:01:32.124Z,11.43
2023-05-17T14:04:00.557Z,13.02
2023-05-17T14:06:27.561Z,13.48
2023-05-17T14:08:55.808Z,14.73
2023-05-17T14:11:22.556Z,14.32
2023-05-17T14:13:49.340Z,12.18
2023-05-17T14:16:15.882Z,9.80
2023-05-17T14:18:43.004Z,7.47
2023-05-17T14:21:09.631Z,8.52
2023-05-17T14:23:36.131Z,10.75
2023-05-17T14:26:06.967Z,10.15
2023-05-17T14:28:35.987Z,11.23
2023-05-17T14:31:02.444Z,12.50
2023-05-17T14:33:28.970Z,10.50
2023-05-17T14:35:55.431Z,6.10
2023-05-17T14:38:23.008Z,9.95
2023-05-17T14:40:49.611Z,11.15
2023-05-17T14:43:16.591Z,8.27
2023-05-17T14:45:43.035Z,8.43
2023-05-17T14:48:09.649Z,8.45
2023-05-17T14:50:36.312Z,9.98
2023-05-17T14:53:02.966Z,9.32
2023-05-17T14:55:30.030Z,10.80
2023-05-17T14:57:57.969Z,15.23
2023-05-17T15:00:24.798Z,11.90
2023-05-17T15:02:51.294Z,13.07
2023-05-17T15:05:18.579Z,7.80
2023-05-17T15:07:45.170Z,6.05
2023-05-17T15:10:12.997Z,11.55
2023-05-17T15:12:39.438Z,9.20
2023-05-17T15:15:06.704Z,9.38
2023-05-17T15:17:33.852Z,8.60
2023-05-17T15:20:00.591Z,13.18
2023-05-17T15:22:27.080Z,9.15
2023-05-17T15:24:54.324Z,7.63
2023-05-17T15:27:21.000Z,11.90
2023-05-17T15:29:47.461Z,8.05
2023-05-17T15:32:14.007Z,9.68
2023-05-17T15:34:41.102Z,10.32
2023-05-17T15:37:07.644Z,8.30
2023-05-17T15:39:34.160Z,13.88
2023-05-17T15:42:00.899Z,8.98
2023-05-17T15:44:29.504Z,6.88
2023-05-17T15:46:56.121Z,15.32
2023-05-17T15:49:22.640Z,11.27
2023-05-17T15:51:49.233Z,9.85
2023-05-17T15:54:15.791Z,11.27
2023-05-17T15:56:42.715Z,12.23
2023-05-17T15:59:09.288Z,19.38
2023-05-17T16:01:35.875Z,10.27
2023-05-17T16:04:02.482Z,9.73
2023-05-17T16:06:34.821Z,10.38
2023-05-17T16:09:02.968Z,11.35
2023-05-17T16:11:29.600Z,8.85
2023-05-17T16:13:57.064Z,12.88
2023-05-17T16:16:23.811Z,11.00
2023-05-17T16:18:50.603Z,7.28
2023-05-17T16:21:17.215Z,9.35
2023-05-17T16:23:43.721Z,10.35
2023-05-17T16:26:10.765Z,8.93
2023-05-17T16:28:37.333Z,9.23
2023-05-17T16:31:05.707Z,13.77
2023-05-17T16:33:32.410Z,11.20
2023-05-17T16:35:59.229Z,11.25
2023-05-17T16:38:26.237Z,10.48
2023-05-17T16:40:52.801Z,9.45
2023-05-17T16:43:19.330Z,11.80
2023-05-17T16:45:46.424Z,17.33
2023-05-17T16:48:17.395Z,9.43
2023-05-17T16:50:43.990Z,7.28
2023-05-17T16:53:10.703Z,15.77
2023-05-17T16:55:37.303Z,12.38
2023-05-17T16:58:04.862Z,5.88
2023-05-17T17:00:32.098Z,8.45
2023-05-17T17:02:59.289Z,6.28
2023-05-17T17:05:26.967Z,10.85
2023-05-17T17:07:54.057Z,9.48
2023-05-17T17:10:21.076Z,14.70
2023-05-17T17:12:48.133Z,11.15
2023-05-17T17:15:15.562Z,8.70
2023-05-17T17:17:42.635Z,11.73
2023-05-17T17:20:09.756Z,9.25
2023-05-17T17:22:36.388Z,10.07
2023-05-17T17:25:03.287Z,15.55
2023-05-17T17:27:29.841Z,13.07
2023-05-17T17:29:56.474Z,8.73
2023-05-17T17:32:23.290Z,9.18
2023-05-17T17:34:49.837Z,11.68
2023-05-17T17:37:16.337Z,13.27
2023-05-17T17:39:42.840Z,5.60
2023-05-17T17:42:10.520Z,8.20
2023-05-17T17:44:37.054Z,8.40
2023-05-17T17:47:03.747Z,4.20
2023-05-17T17:49:30.319Z,9.93
2023-05-17T17:51:58.161Z,6.43
2023-05-17T17:54:24.715Z,12.00
2023-05-17T17:56:52.073Z,7.78
2023-05-17T17:59:18.630Z,9.52
2023-05-17T18:01:45.232Z,13.38
2023-05-17T18:04:13.546Z,10.32
2023-05-17T18:06:41.818Z,6.95
2023-05-17T18:09:08.660Z,6.00
2023-05-17T18:11:35.236Z,9.75
2023-05-17T18:14:02.627Z,9.55
2023-05-17T18:16:29.328Z,7.13
2023-05-17T18:18:55.973Z,8.40
2023-05-17T18:21:22.528Z,9.52
2023-05-17T18:23:49.027Z,10.25
2023-05-17T18:26:15.457Z,9.27
2023-05-17T18:28:43.055Z,6.78
2023-05-17T18:31:10.143Z,14.30
2023-05-17T18:33:36.706Z,10.88
2023-05-17T18:36:03.505Z,13.45
2023-05-17T18:38:29.987Z,7.03
2023-05-17T18:40:56.483Z,8.23
2023-05-17T18:43:23.128Z,5.35
2023-05-17T18:45:49.600Z,8.02
2023-05-17T18:48:16.186Z,11.82
2023-05-17T18:50:43.090Z,6.45
2023-05-17T18:53:09.846Z,7.43
2023-05-17T18:55:36.476Z,4.25
2023-05-17T18:58:02.949Z,9.40
2023-05-17T19:00:29.543Z,5.78
2023-05-17T19:02:56.312Z,8.88
2023-05-17T19:05:22.865Z,7.13
2023-05-17T19:07:49.444Z,8.52
2023-05-17T19:10:16.010Z,8.32
2023-05-17T19:12:45.650Z,6.60
2023-05-17T19:15:12.795Z,4.45
2023-05-17T19:17:39.545Z,7.10
2023-05-17T19:20:07.735Z,8.82
2023-05-17T19:22:35.692Z,9.30
2023-05-17T19:25:02.300Z,8.38
2023-05-17T19:27:29.026Z,5.75
2023-05-17T19:29:55.812Z,6.65
2023-05-17T19:32:22.837Z,9.07
2023-05-17T19:34:49.853Z,6.68
2023-05-17T19:37:16.544Z,3.67
2023-05-17T19:39:43.177Z,8.45
2023-05-17T19:42:09.848Z,6.20
2023-05-17T19:44:36.322Z,7.28
2023-05-17T19:47:02.789Z,8.07
2023-05-17T19:49:29.292Z,5.10
2023-05-17T19:52:00.423Z,5.28
2023-05-17T19:54:30.398Z,9.25
2023-05-17T19:56:57.468Z,7.13
2023-05-17T19:59:23.960Z,9.80
2023-05-17T20:01:50.815Z,5.10
2023-05-17T20:04:17.465Z,5.10
2023-05-17T20:06:44.074Z,4.97
2023-05-17T20:09:10.664Z,7.72
2023-05-17T20:11:37.405Z,6.55
2023-05-17T20:14:03.919Z,10.00
2023-05-17T20:16:30.931Z,10.40
2023-05-17T20:19:01.051Z,7.55
2023-05-17T20:21:27.960Z,4.82
2023-05-17T20:24:01.222Z,5.10
2023-05-17T20:26:31.869Z,8.38
2023-05-17T20:28:59.106Z,5.17
2023-05-17T20:31:25.917Z,8.82
2023-05-17T20:33:52.949Z,3.50
2023-05-17T20:36:19.519Z,5.45
2023-05-17T20:38:46.082Z,5.68
2023-05-17T20:41:14.796Z,6.68
2023-05-17T20:43:46.375Z,7.38
2023-05-17T20:46:13.837Z,3.65
2023-05-17T20:48:42.698Z,7.18
2023-05-17T20:51:10.325Z,5.97
2023-05-17T20:53:37.474Z,7.85
2023-05-17T20:56:04.154Z,9.93
2023-05-17T20:58:31.019Z,6.30
2023-05-17T21:00:59.823Z,4.18
2023-05-17T21:03:33.299Z,4.35
2023-05-17T21:06:05.066Z,10.88
2023-05-17T21:10:59.562Z,7.55
2023-05-17T21:13:26.734Z,5.82
2023-05-17T21:15:56.633Z,10.13
2023-05-17T21:18:23.691Z,6.13
2023-05-17T21:20:51.313Z,6.50
2023-05-17T21:23:18.791Z,5.38
2023-05-17T21:25:45.483Z,9.77
2023-05-17T21:28:12.057Z,6.53
2023-05-17T21:30:38.658Z,4.40
2023-05-17T21:33:05.656Z,7.15
2023-05-17T21:35:32.396Z,9.80
2023-05-17T21:37:58.874Z,6.85
2023-05-17T21:40:25.482Z,7.60
2023-05-17T21:42:52.067Z,10.68
2023-05-17T21:45:18.581Z,10.77
2023-05-17T21:47:45.086Z,4.20
2023-05-17T21:50:11.604Z,6.63
2023-05-17T21:52:38.109Z,9.75
2023-05-17T21:55:05.133Z,2.78
2023-05-17T21:57:35.820Z,10.93
2023-05-17T22:00:07.800Z,5.83
2023-05-17T22:02:35.862Z,9.25
2023-05-17T22:05:02.500Z,4.95
2023-05-17T22:07:29.067Z,6.72
2023-05-17T22:09:55.612Z,10.57
2023-05-17T22:12:25.310Z,7.18
2023-05-17T22:14:53.394Z,4.68
2023-05-17T22:17:29.604Z,6.35
2023-05-17T22:20:11.247Z,7.25
2023-05-17T22:22:37.836Z,6.88
2023-05-17T22:25:06.704Z,6.80
2023-05-17T22:27:33.204Z,9.15
2023-05-17T22:29:59.661Z,7.97
2023-05-17T22:32:26.265Z,3.20
2023-05-17T22:34:53.050Z,5.95
2023-05-17T22:37:22.709Z,5.32
2023-05-17T22:39:49.644Z,11.10
2023-05-17T22:42:16.242Z,5.72
2023-05-17T22:44:42.728Z,9.35
2023-05-17T22:47:09.238Z,7.35
2023-05-17T22:49:35.890Z,4.18
2023-05-17T22:52:07.591Z,4.82
2023-05-17T22:54:38.075Z,6.75
2023-05-17T22:57:05.258Z,7.53
2023-05-17T22:59:32.810Z,8.98
2023-05-17T23:01:59.641Z,8.40
2023-05-17T23:04:29.891Z,6.72
2023-05-17T23:07:02.072Z,8.10
2023-05-17T23:09:29.976Z,7.50
2023-05-17T23:12:06.283Z,9.10
2023-05-17T23:14:36.021Z,5.78
2023-05-17T23:17:03.953Z,9.18
2023-05-17T23:19:30.673Z,6.25
2023-05-17T23:21:57.833Z,5.50
2023-05-17T23:24:25.761Z,7.55
2023-05-17T23:26:52.653Z,3.45
2023-05-17T23:29:19.065Z,4.53
2023-05-17T23:31:47.974Z,7.15
2023-05-17T23:34:15.067Z,5.45
2023-05-17T23:36:41.661Z,5.40
2023-05-17T23:39:08.759Z,7.95
2023-05-17T23:41:37.841Z,5.28
2023-05-17T23:44:05.352Z,5.68
2023-05-17T23:46:32.089Z,6.53
2023-05-17T23:48:58.614Z,7.75
2023-05-17T23:51:25.139Z,6.13
2023-05-17T23:53:51.656Z,5.90
2023-05-17T23:56:18.994Z,9.45
2023-05-17T23:58:46.334Z,8.10
